createdAt,value
2019-06-26T00:01:19.984Z,19.00
2019-06-26T00:04:08.425Z,18.90
2019-06-26T00:06:56.540Z,18.90
2019-06-26T00:09:44.618Z,18.90
2019-06-26T00:12:32.289Z,18.90
2019-06-26T00:15:20.166Z,18.90
2019-06-26T00:18:08.041Z,18.80
2019-06-26T00:20:55.654Z,18.80
2019-06-26T00:23:43.632Z,18.70
2019-06-26T00:26:31.288Z,18.70
2019-06-26T00:29:19.112Z,18.70
2019-06-26T00:32:07.114Z,18.70
2019-06-26T00:34:55.132Z,18.60
2019-06-26T00:37:43.229Z,18.60
2019-06-26T00:40:30.510Z,18.40
2019-06-26T00:43:18.078Z,18.50
2019-06-26T00:46:05.769Z,18.50
2019-06-26T00:48:53.402Z,18.40
2019-06-26T00:51:41.114Z,18.40
2019-06-26T00:54:29.136Z,18.30
2019-06-26T00:57:17.208Z,18.30
2019-06-26T01:00:09.356Z,18.30
2019-06-26T01:02:57.669Z,18.20
2019-06-26T01:05:45.080Z,18.10
2019-06-26T01:08:32.698Z,18.10
2019-06-26T01:11:21.693Z,18.10
2019-06-26T01:14:09.858Z,18.10
2019-06-26T01:16:57.557Z,18.00
2019-06-26T01:19:45.232Z,18.00
2019-06-26T01:22:33.162Z,18.00
2019-06-26T01:25:21.190Z,18.00
2019-06-26T01:28:09.163Z,18.00
2019-06-26T01:30:56.744Z,18.00
2019-06-26T01:33:44.625Z,18.00
2019-06-26T01:36:32.932Z,18.00
2019-06-26T01:39:20.741Z,18.00
2019-06-26T01:42:08.742Z,17.90
2019-06-26T01:44:57.088Z,17.80
2019-06-26T01:47:44.978Z,17.70
2019-06-26T01:50:32.583Z,17.70
2019-06-26T01:53:20.509Z,17.60
2019-06-26T01:56:08.200Z,17.50
2019-06-26T01:58:56.119Z,17.50
2019-06-26T02:01:43.828Z,17.50
2019-06-26T02:04:31.574Z,17.40
2019-06-26T02:07:19.241Z,17.30
2019-06-26T02:10:07.968Z,17.30
2019-06-26T02:12:55.662Z,17.30
2019-06-26T02:15:43.191Z,17.20
2019-06-26T02:18:47.600Z,17.20
2019-06-26T02:21:35.723Z,17.20
2019-06-26T02:24:23.500Z,17.10
2019-06-26T02:27:11.541Z,17.10
2019-06-26T02:29:59.267Z,17.00
2019-06-26T02:32:46.850Z,17.00
2019-06-26T02:35:34.649Z,17.00
2019-06-26T02:38:22.547Z,17.00
2019-06-26T02:41:10.533Z,16.90
2019-06-26T02:43:58.453Z,16.90
2019-06-26T02:46:46.168Z,16.80
2019-06-26T02:49:33.801Z,16.80
2019-06-26T02:52:21.696Z,16.80
2019-06-26T02:55:09.985Z,16.70
2019-06-26T02:57:57.912Z,16.80
2019-06-26T03:00:45.471Z,16.80
2019-06-26T03:03:33.102Z,16.80
2019-06-26T03:06:20.885Z,16.80
2019-06-26T03:09:08.575Z,16.70
2019-06-26T03:11:56.893Z,16.60
2019-06-26T03:14:44.933Z,16.60
2019-06-26T03:17:32.344Z,16.60
2019-06-26T03:20:23.053Z,16.50
2019-06-26T03:23:10.902Z,16.50
2019-06-26T03:25:58.630Z,16.50
2019-06-26T03:28:46.286Z,16.40
2019-06-26T03:31:33.695Z,16.40
2019-06-26T03:34:21.481Z,16.40
2019-06-26T03:37:09.547Z,16.30
2019-06-26T03:39:57.769Z,16.40
2019-06-26T03:42:45.893Z,16.40
2019-06-26T03:45:33.805Z,16.30
2019-06-26T03:48:21.803Z,16.20
2019-06-26T03:51:13.618Z,16.30
2019-06-26T03:53:59.009Z,16.30
2019-06-26T03:56:46.875Z,16.20
2019-06-26T03:59:34.091Z,16.40
2019-06-26T04:02:21.701Z,16.50
2019-06-26T04:05:09.356Z,16.50
2019-06-26T04:07:56.997Z,16.60
2019-06-26T04:10:44.995Z,16.60
2019-06-26T04:13:32.808Z,16.60
2019-06-26T04:16:20.831Z,16.60
2019-06-26T04:19:08.456Z,16.60
2019-06-26T04:21:55.922Z,16.70
2019-06-26T04:24:43.686Z,16.70
2019-06-26T04:27:31.060Z,16.70
2019-06-26T04:30:19.438Z,16.80
2019-06-26T04:33:07.156Z,16.80
2019-06-26T04:35:54.897Z,16.90
2019-06-26T04:38:43.092Z,17.00
2019-06-26T04:41:30.572Z,17.00
2019-06-26T04:44:18.560Z,17.10
2019-06-26T04:47:06.403Z,17.20
2019-06-26T04:49:54.388Z,17.20
2019-06-26T04:52:41.921Z,17.40
2019-06-26T04:55:29.789Z,17.50
2019-06-26T04:58:17.401Z,17.60
2019-06-26T05:01:05.409Z,17.80
2019-06-26T05:03:52.916Z,17.90
2019-06-26T05:06:40.739Z,18.10
2019-06-26T05:09:28.855Z,18.10
2019-06-26T05:12:16.535Z,18.30
2019-06-26T05:15:04.732Z,18.50
2019-06-26T05:17:52.625Z,18.60
2019-06-26T05:20:40.210Z,18.70
2019-06-26T05:23:27.888Z,18.90
2019-06-26T05:26:15.633Z,18.90
2019-06-26T05:29:03.365Z,18.90
2019-06-26T05:31:50.984Z,19.00
2019-06-26T05:34:38.632Z,19.10
2019-06-26T05:37:26.311Z,19.30
2019-06-26T05:40:15.725Z,19.30
2019-06-26T05:43:03.299Z,19.50
2019-06-26T05:45:50.895Z,19.70
2019-06-26T05:48:38.495Z,19.90
2019-06-26T05:51:26.981Z,20.00
2019-06-26T05:54:14.992Z,20.20
2019-06-26T05:57:02.874Z,20.40
2019-06-26T05:59:50.859Z,20.60
2019-06-26T06:02:38.931Z,20.70
2019-06-26T06:05:26.389Z,20.90
2019-06-26T06:08:14.054Z,21.10
2019-06-26T06:11:01.869Z,21.20
2019-06-26T06:13:49.806Z,21.30
2019-06-26T06:16:47.002Z,21.50
2019-06-26T06:19:26.685Z,21.60
2019-06-26T06:22:14.579Z,21.80
2019-06-26T06:25:03.139Z,22.00
2019-06-26T06:27:50.955Z,22.10
2019-06-26T06:30:38.873Z,22.20
2019-06-26T06:33:28.039Z,22.40
2019-06-26T06:36:16.311Z,22.40
2019-06-26T06:39:04.898Z,22.50
2019-06-26T06:41:55.752Z,22.70
2019-06-26T06:44:44.108Z,22.90
2019-06-26T06:47:32.153Z,23.00
2019-06-26T06:50:20.847Z,23.20
2019-06-26T06:53:08.758Z,23.30
2019-06-26T06:55:56.879Z,23.40
2019-06-26T06:58:45.277Z,23.60
2019-06-26T07:01:33.259Z,23.70
2019-06-26T07:04:21.352Z,23.90
2019-06-26T07:07:09.546Z,24.00
2019-06-26T07:10:00.656Z,24.20
2019-06-26T07:12:50.552Z,24.20
2019-06-26T07:15:39.008Z,24.30
2019-06-26T07:18:35.834Z,24.50
2019-06-26T07:22:14.956Z,24.60
2019-06-26T07:25:03.523Z,24.80
2019-06-26T07:31:02.644Z,25.10
2019-06-26T07:33:55.523Z,25.20
2019-06-26T07:36:57.463Z,25.40
2019-06-26T07:39:45.742Z,25.60
2019-06-26T07:42:33.743Z,25.70
2019-06-26T07:45:24.005Z,25.80
2019-06-26T07:48:12.934Z,25.90
2019-06-26T07:51:01.239Z,26.10
2019-06-26T07:54:07.540Z,26.20
2019-06-26T07:56:56.057Z,26.30
2019-06-26T07:59:44.824Z,26.50
2019-06-26T08:02:32.556Z,26.60
2019-06-26T08:05:26.885Z,26.70
2019-06-26T08:08:15.057Z,26.70
2019-06-26T08:11:06.363Z,26.80
2019-06-26T08:16:50.451Z,27.10
2019-06-26T08:19:38.814Z,27.20
2019-06-26T08:22:27.046Z,27.40
2019-06-26T08:25:15.288Z,27.60
2019-06-26T08:28:03.551Z,27.70
2019-06-26T08:30:51.783Z,27.80
2019-06-26T08:33:39.588Z,27.80
2019-06-26T08:36:27.220Z,27.90
2019-06-26T08:39:15.504Z,28.00
2019-06-26T08:42:03.815Z,28.10
2019-06-26T08:44:51.768Z,28.30
2019-06-26T08:47:40.134Z,28.40
2019-06-26T08:50:28.098Z,28.60
2019-06-26T08:53:26.352Z,28.80
2019-06-26T08:56:14.267Z,28.90
2019-06-26T08:59:02.551Z,29.00
2019-06-26T09:01:50.977Z,29.20
2019-06-26T09:04:38.590Z,29.30
2019-06-26T09:07:29.802Z,29.40
2019-06-26T09:10:18.666Z,29.50
2019-06-26T09:13:26.621Z,29.70
2019-06-26T09:16:14.675Z,29.80
2019-06-26T09:19:03.211Z,29.90
2019-06-26T09:21:51.419Z,30.00
2019-06-26T09:24:39.542Z,30.00
2019-06-26T09:27:28.012Z,30.20
2019-06-26T09:30:17.383Z,30.30
2019-06-26T09:33:06.046Z,30.30
2019-06-26T09:35:53.745Z,30.30
2019-06-26T09:38:41.942Z,30.40
2019-06-26T09:41:30.180Z,30.40
2019-06-26T09:44:17.893Z,30.50
2019-06-26T09:47:05.539Z,30.70
2019-06-26T09:49:53.729Z,30.80
2019-06-26T09:52:41.625Z,30.90
2019-06-26T09:55:29.551Z,30.90
2019-06-26T09:58:17.797Z,30.90
2019-06-26T10:01:05.883Z,30.90
2019-06-26T10:03:53.621Z,31.10
2019-06-26T10:06:41.552Z,31.30
2019-06-26T10:09:29.370Z,31.50
2019-06-26T10:12:17.347Z,31.70
2019-06-26T10:15:06.610Z,31.70
2019-06-26T10:17:54.719Z,31.80
2019-06-26T10:20:42.460Z,32.00
2019-06-26T10:23:29.958Z,32.10
2019-06-26T10:26:17.598Z,32.10
2019-06-26T10:29:05.630Z,32.30
2019-06-26T10:31:53.653Z,32.30
2019-06-26T10:34:41.428Z,32.40
2019-06-26T10:37:29.456Z,32.40
2019-06-26T10:40:17.494Z,32.60
2019-06-26T10:43:05.101Z,32.70
2019-06-26T10:45:52.853Z,32.60
2019-06-26T10:48:40.821Z,32.70
2019-06-26T10:51:28.585Z,32.70
2019-06-26T10:54:16.267Z,32.80
2019-06-26T10:57:04.197Z,32.90
2019-06-26T10:59:55.478Z,33.10
2019-06-26T11:02:41.544Z,33.20
2019-06-26T11:05:29.546Z,33.30
2019-06-26T11:08:17.562Z,33.10
2019-06-26T11:11:05.441Z,33.00
2019-06-26T11:13:53.109Z,32.90
2019-06-26T11:16:41.172Z,33.00
2019-06-26T11:19:42.729Z,33.10
2019-06-26T11:22:18.243Z,33.20
2019-06-26T11:25:07.177Z,33.30
2019-06-26T11:27:56.188Z,33.40
2019-06-26T11:30:43.835Z,33.70
2019-06-26T11:33:31.439Z,33.80
2019-06-26T11:36:19.490Z,33.80
2019-06-26T11:39:08.211Z,33.90
2019-06-26T11:41:55.976Z,33.90
2019-06-26T11:44:43.649Z,33.90
2019-06-26T11:47:31.062Z,33.90
2019-06-26T11:50:19.193Z,33.90
2019-06-26T11:53:06.977Z,33.90
2019-06-26T11:55:54.776Z,34.10
2019-06-26T11:58:42.563Z,34.10
2019-06-26T12:01:30.422Z,34.10
2019-06-26T12:04:18.118Z,34.00
2019-06-26T12:07:06.415Z,34.10
2019-06-26T12:09:54.342Z,34.10
2019-06-26T12:12:42.350Z,34.10
2019-06-26T12:15:30.386Z,34.20
2019-06-26T12:18:18.122Z,34.30
2019-06-26T12:21:06.126Z,34.30
2019-06-26T12:23:54.307Z,34.50
2019-06-26T12:26:42.725Z,34.60
2019-06-26T12:29:32.874Z,34.80
2019-06-26T12:32:20.204Z,34.90
2019-06-26T12:35:08.050Z,34.80
2019-06-26T12:37:55.834Z,34.70
2019-06-26T12:40:43.544Z,34.60
2019-06-26T12:43:31.283Z,34.70
2019-06-26T12:46:19.040Z,34.70
2019-06-26T12:49:06.957Z,34.70
2019-06-26T12:51:54.821Z,34.80
2019-06-26T12:54:42.998Z,34.90
2019-06-26T12:57:30.875Z,35.00
2019-06-26T13:00:19.132Z,34.80
2019-06-26T13:03:07.183Z,34.70
2019-06-26T13:05:55.477Z,34.80
2019-06-26T13:08:43.668Z,34.90
2019-06-26T13:11:31.106Z,35.00
2019-06-26T13:14:18.976Z,34.90
2019-06-26T13:17:07.080Z,35.00
2019-06-26T13:19:55.097Z,35.00
2019-06-26T13:22:43.344Z,35.10
2019-06-26T13:25:31.486Z,35.30
2019-06-26T13:28:19.540Z,35.40
2019-06-26T13:31:07.685Z,35.30
2019-06-26T13:33:55.481Z,35.30
2019-06-26T13:36:43.922Z,35.40
2019-06-26T13:39:31.688Z,35.30
2019-06-26T13:42:19.759Z,35.30
2019-06-26T13:45:07.878Z,35.30
2019-06-26T13:47:57.900Z,35.30
2019-06-26T13:50:46.168Z,35.40
2019-06-26T13:53:34.498Z,35.50
2019-06-26T13:56:23.022Z,35.60
2019-06-26T13:59:11.051Z,35.70
2019-06-26T14:01:58.729Z,35.60
2019-06-26T14:04:47.116Z,35.50
2019-06-26T14:07:35.003Z,35.70
2019-06-26T14:10:23.062Z,35.70
2019-06-26T14:13:11.136Z,35.70
2019-06-26T14:15:59.119Z,35.70
2019-06-26T14:18:46.617Z,35.80
2019-06-26T14:21:36.595Z,35.70
2019-06-26T14:24:24.750Z,35.70
2019-06-26T14:27:12.962Z,35.70
2019-06-26T14:30:01.350Z,35.80
2019-06-26T14:32:49.451Z,35.70
2019-06-26T14:35:37.308Z,35.80
2019-06-26T14:38:25.450Z,35.80
2019-06-26T14:41:13.730Z,36.00
2019-06-26T14:44:02.869Z,36.20
2019-06-26T14:47:09.226Z,36.30
2019-06-26T14:50:03.425Z,36.60
2019-06-26T14:52:51.858Z,36.40
2019-06-26T14:55:40.036Z,36.30
2019-06-26T14:58:27.976Z,36.30
2019-06-26T15:01:15.499Z,36.30
2019-06-26T15:04:03.802Z,36.20
2019-06-26T15:06:52.095Z,36.20
2019-06-26T15:12:36.229Z,36.60
2019-06-26T15:15:24.055Z,36.60
2019-06-26T15:18:12.300Z,36.50
2019-06-26T15:21:04.175Z,36.80
2019-06-26T15:23:52.845Z,37.10
2019-06-26T15:26:41.435Z,37.00
2019-06-26T15:29:37.564Z,36.90
2019-06-26T15:32:44.547Z,36.90
2019-06-26T15:35:33.589Z,36.90
2019-06-26T15:44:13.715Z,37.10
2019-06-26T15:47:02.151Z,37.30
2019-06-26T15:49:59.964Z,37.50
2019-06-26T15:52:48.059Z,37.50
2019-06-26T15:58:47.224Z,37.70
2019-06-26T16:01:35.171Z,38.10
2019-06-26T16:04:23.254Z,38.60
2019-06-26T16:07:11.525Z,39.30
2019-06-26T16:10:00.054Z,39.90
2019-06-26T16:12:48.450Z,40.00
2019-06-26T16:15:39.817Z,40.20
2019-06-26T16:18:44.447Z,40.80
2019-06-26T16:21:32.362Z,41.10
2019-06-26T16:24:20.669Z,41.50
2019-06-26T16:27:10.683Z,41.70
2019-06-26T16:29:59.670Z,42.20
2019-06-26T16:32:48.019Z,42.50
2019-06-26T16:35:36.431Z,42.50
2019-06-26T16:38:48.772Z,42.50
2019-06-26T16:41:41.380Z,42.50
2019-06-26T16:44:47.834Z,42.80
2019-06-26T16:47:39.105Z,43.20
2019-06-26T16:50:37.998Z,43.30
2019-06-26T16:53:26.758Z,43.40
2019-06-26T16:56:17.967Z,43.40
2019-06-26T16:59:06.110Z,43.20
2019-06-26T17:01:57.323Z,43.40
2019-06-26T17:04:48.843Z,43.40
2019-06-26T17:07:40.057Z,43.30
2019-06-26T17:10:28.134Z,43.50
2019-06-26T17:13:16.749Z,43.60
2019-06-26T17:16:05.507Z,43.50
2019-06-26T17:22:04.419Z,42.80
2019-06-26T17:24:53.482Z,42.70
2019-06-26T17:27:41.416Z,42.40
2019-06-26T17:30:32.939Z,42.20
2019-06-26T17:33:20.977Z,41.90
2019-06-26T17:36:09.913Z,41.80
2019-06-26T17:39:49.355Z,41.60
2019-06-26T17:42:37.678Z,41.30
2019-06-26T17:45:29.063Z,41.00
2019-06-26T17:48:35.717Z,40.70
2019-06-26T17:51:26.831Z,40.10
2019-06-26T17:54:18.250Z,39.20
2019-06-26T17:57:07.754Z,38.40
2019-06-26T17:59:56.467Z,37.70
2019-06-26T18:02:44.608Z,37.00
2019-06-26T18:05:33.273Z,36.50
2019-06-26T18:08:21.279Z,36.00
2019-06-26T18:11:08.941Z,35.50
2019-06-26T18:13:56.878Z,35.20
2019-06-26T18:16:45.158Z,34.90
2019-06-26T18:19:32.954Z,34.60
2019-06-26T18:22:20.550Z,34.20
2019-06-26T18:25:08.676Z,33.80
2019-06-26T18:27:56.493Z,33.60
2019-06-26T18:30:43.945Z,33.40
2019-06-26T18:33:31.594Z,33.10
2019-06-26T18:36:19.514Z,32.90
2019-06-26T18:39:08.381Z,32.40
2019-06-26T18:41:56.304Z,32.00
2019-06-26T18:44:44.065Z,31.70
2019-06-26T18:47:31.931Z,31.40
2019-06-26T18:50:20.091Z,31.20
2019-06-26T18:53:07.996Z,31.00
2019-06-26T18:55:55.944Z,30.70
2019-06-26T18:58:44.241Z,30.40
2019-06-26T19:01:32.388Z,30.10
2019-06-26T19:04:20.282Z,29.80
2019-06-26T19:07:08.606Z,29.60
2019-06-26T19:09:56.762Z,29.40
2019-06-26T19:12:45.892Z,29.10
2019-06-26T19:15:33.909Z,28.90
2019-06-26T19:18:22.209Z,28.70
2019-06-26T19:21:10.146Z,28.40
2019-06-26T19:24:09.656Z,28.30
2019-06-26T19:26:48.123Z,28.10
2019-06-26T19:29:35.876Z,27.90
2019-06-26T19:32:27.075Z,27.60
2019-06-26T19:35:19.187Z,27.50
2019-06-26T19:38:04.806Z,27.40
2019-06-26T19:40:52.867Z,27.20
2019-06-26T19:43:40.790Z,27.20
2019-06-26T19:46:29.230Z,27.00
2019-06-26T19:49:17.679Z,26.90
2019-06-26T19:52:06.264Z,26.70
2019-06-26T19:54:55.006Z,26.60
2019-06-26T19:58:01.434Z,26.40
2019-06-26T20:01:26.411Z,26.30
2019-06-26T20:04:23.410Z,26.20
2019-06-26T20:07:11.577Z,26.00
2019-06-26T20:10:01.811Z,25.90
2019-06-26T20:12:49.558Z,25.80
2019-06-26T20:15:42.148Z,25.70
2019-06-26T20:18:30.054Z,25.60
2019-06-26T20:21:18.282Z,25.60
2019-06-26T20:24:06.871Z,25.50
2019-06-26T20:26:54.891Z,25.50
2019-06-26T20:29:45.899Z,25.50
2019-06-26T20:32:33.896Z,25.40
2019-06-26T20:35:21.802Z,25.30
2019-06-26T20:38:09.998Z,25.10
2019-06-26T20:40:59.541Z,24.90
2019-06-26T20:43:47.546Z,24.70
2019-06-26T20:46:35.481Z,24.50
2019-06-26T20:49:23.409Z,24.30
2019-06-26T20:52:11.534Z,24.20
2019-06-26T20:55:02.067Z,24.10
2019-06-26T20:57:48.634Z,24.00
2019-06-26T21:00:36.977Z,24.00
2019-06-26T21:03:25.101Z,23.90
2019-06-26T21:06:13.149Z,23.80
2019-06-26T21:09:00.914Z,23.70
2019-06-26T21:11:49.163Z,23.60
2019-06-26T21:14:37.484Z,23.50
2019-06-26T21:17:25.842Z,23.40
2019-06-26T21:20:14.081Z,23.40
2019-06-26T21:23:02.155Z,23.50
2019-06-26T21:25:50.341Z,23.20
2019-06-26T21:28:38.400Z,22.90
2019-06-26T21:31:27.424Z,23.00
2019-06-26T21:34:15.333Z,23.00
2019-06-26T21:37:03.225Z,22.90
2019-06-26T21:39:51.256Z,22.90
2019-06-26T21:42:39.554Z,22.80
2019-06-26T21:45:27.442Z,22.80
2019-06-26T21:48:15.563Z,22.70
2019-06-26T21:51:05.139Z,22.70
2019-06-26T21:53:53.177Z,22.70
2019-06-26T21:56:40.955Z,22.60
2019-06-26T21:59:31.981Z,22.50
2019-06-26T22:02:20.075Z,22.60
2019-06-26T22:05:08.009Z,22.50
2019-06-26T22:07:55.798Z,22.40
2019-06-26T22:10:43.882Z,22.30
2019-06-26T22:13:31.243Z,22.20
2019-06-26T22:16:18.614Z,22.10
2019-06-26T22:19:06.437Z,22.10
2019-06-26T22:21:54.045Z,22.00
2019-06-26T22:24:42.046Z,21.90
2019-06-26T22:27:29.840Z,21.90
2019-06-26T22:30:17.809Z,21.80
2019-06-26T22:33:05.370Z,21.70
2019-06-26T22:35:53.054Z,21.70
2019-06-26T22:38:40.837Z,21.60
2019-06-26T22:41:28.180Z,21.60
2019-06-26T22:44:15.799Z,21.60
2019-06-26T22:47:03.186Z,21.50
2019-06-26T22:49:50.799Z,21.50
2019-06-26T22:52:38.099Z,21.40
2019-06-26T22:55:25.299Z,21.30
2019-06-26T22:58:13.405Z,21.20
2019-06-26T23:01:02.006Z,21.20
2019-06-26T23:03:49.981Z,21.30
2019-06-26T23:06:37.818Z,21.30
2019-06-26T23:09:25.449Z,21.30
2019-06-26T23:12:12.729Z,21.20
2019-06-26T23:15:00.041Z,21.10
2019-06-26T23:17:47.675Z,21.00
2019-06-26T23:20:35.112Z,20.90
2019-06-26T23:23:22.885Z,20.90
2019-06-26T23:26:23.466Z,20.90
2019-06-26T23:28:59.762Z,20.90
2019-06-26T23:31:47.547Z,20.90
2019-06-26T23:34:35.202Z,20.80
2019-06-26T23:37:22.772Z,20.70
2019-06-26T23:40:10.752Z,20.60
2019-06-26T23:42:58.199Z,20.50
2019-06-26T23:45:45.927Z,20.40
2019-06-26T23:48:33.748Z,20.40
2019-06-26T23:51:21.573Z,20.50
2019-06-26T23:54:09.083Z,20.40
2019-06-26T23:56:56.967Z,20.30
2019-06-26T23:59:44.542Z,20.30
